Time;durP1;ratioP1;P1;durP2;ratioP2;P2;SDS_P1;SDS_P2;PMS_P1;PMS_P2;Temp;Humidity;BMP_temperature;BMP_pressure;BME280_temperature;BME280_humidity;BME280_pressure;Samples;Min_cycle;Max_cycle;Signal;HPM_P1;HPM_P2
2023/08/19 00:01:00;;;;;;;12.63;3.77;;;27.00;1.00;;;;;;5026493;28;20188;-74
2023/08/19 00:03:26;;;;;;;7.10;3.50;;;27.90;1.00;;;;;;5027757;28;20186;-73
2023/08/19 00:05:52;;;;;;;5.80;3.80;;;27.00;1.00;;;;;;5028242;28;20185;-73
2023/08/19 00:08:17;;;;;;;11.17;3.37;;;27.00;1.00;;;;;;5026092;28;20244;-73
2023/08/19 00:10:43;;;;;;;7.70;3.80;;;27.00;1.00;;;;;;5027834;28;20275;-73
2023/08/19 00:13:09;;;;;;;9.53;3.73;;;27.00;1.00;;;;;;5027501;28;20272;-74
2023/08/19 00:15:35;;;;;;;5.87;3.50;;;27.00;1.00;;;;;;5021484;28;20720;-73
2023/08/19 00:18:01;;;;;;;5.67;3.83;;;27.00;1.00;;;;;;5026229;28;20548;-74
2023/08/19 00:20:28;;;;;;;5.90;3.40;;;26.90;1.00;;;;;;5026884;28;20247;-73
2023/08/19 00:22:56;;;;;;;4.63;3.53;;;26.90;1.00;;;;;;5027034;28;20182;-73
2023/08/19 00:25:22;;;;;;;7.43;3.80;;;26.90;1.00;;;;;;5022342;28;20181;-73
2023/08/19 00:27:47;;;;;;;8.53;3.70;;;27.00;1.00;;;;;;5025725;28;20197;-73
2023/08/19 00:30:13;;;;;;;7.07;3.60;;;27.20;1.00;;;;;;5027321;28;20941;-73
2023/08/19 00:32:40;;;;;;;7.73;3.47;;;27.30;1.00;;;;;;5027058;28;20189;-73
2023/08/19 00:35:05;;;;;;;4.47;3.40;;;27.00;1.00;;;;;;5025304;28;20536;-73
2023/08/19 00:37:32;;;;;;;6.47;3.40;;;27.00;1.00;;;;;;5025312;28;20211;-74
2023/08/19 00:39:58;;;;;;;8.63;3.80;;;27.00;1.00;;;;;;5025602;28;20185;-74
2023/08/19 00:42:23;;;;;;;9.60;3.90;;;27.00;1.00;;;;;;5025957;28;20262;-74
2023/08/19 00:44:49;;;;;;;6.73;3.53;;;27.00;1.00;;;;;;5027973;28;20186;-73
2023/08/19 00:47:15;;;;;;;7.67;3.83;;;27.00;1.00;;;;;;5026259;28;20611;-73
2023/08/19 00:49:42;;;;;;;7.00;3.90;;;27.00;1.00;;;;;;5026414;28;20200;-73
2023/08/19 00:52:08;;;;;;;6.87;3.80;;;27.00;1.00;;;;;;5024576;28;20706;-73
2023/08/19 00:54:33;;;;;;;6.40;4.13;;;26.90;1.00;;;;;;5026505;28;20189;-73
2023/08/19 00:56:59;;;;;;;6.10;3.70;;;26.90;1.00;;;;;;5024226;28;20276;-73
2023/08/19 00:59:26;;;;;;;4.83;3.57;;;26.80;1.00;;;;;;5027276;28;20185;-74
2023/08/19 01:01:52;;;;;;;7.63;3.50;;;26.80;1.00;;;;;;5026586;28;20227;-73
2023/08/19 01:04:18;;;;;;;5.50;3.53;;;26.70;1.00;;;;;;5031846;28;20177;-74
2023/08/19 01:07:21;;;;;;;4.87;3.33;;;26.70;1.00;;;;;;5034158;28;20205;-73
2023/08/19 01:10:03;;;;;;;8.13;3.67;;;26.70;1.00;;;;;;5029499;28;20272;-74
2023/08/19 01:12:48;;;;;;;4.77;3.60;;;26.70;1.00;;;;;;5032118;28;20181;-74
2023/08/19 01:15:21;;;;;;;7.97;3.40;;;26.60;1.00;;;;;;5033011;28;20772;-74
2023/08/19 01:17:49;;;;;;;5.93;3.70;;;26.60;1.00;;;;;;5032122;28;20244;-73
2023/08/19 01:20:16;;;;;;;5.70;3.43;;;26.60;1.00;;;;;;5033883;28;20447;-73
2023/08/19 01:22:51;;;;;;;8.53;4.10;;;26.50;1.00;;;;;;5034082;28;20185;-73
2023/08/19 01:25:19;;;;;;;5.67;3.47;;;26.50;1.00;;;;;;5034301;28;20204;-73
2023/08/19 01:27:44;;;;;;;7.67;3.70;;;26.50;1.00;;;;;;5032206;28;20646;-73
2023/08/19 01:30:10;;;;;;;7.33;3.60;;;26.50;1.00;;;;;;5032274;28;20177;-73
2023/08/19 01:32:37;;;;;;;10.53;4.00;;;26.40;1.00;;;;;;5032664;28;20181;-73
2023/08/19 01:35:04;;;;;;;7.30;3.80;;;26.40;1.00;;;;;;5033675;28;20204;-74
2023/08/19 01:37:38;;;;;;;6.40;3.47;;;26.40;1.00;;;;;;5032628;28;20205;-73
2023/08/19 01:40:07;;;;;;;5.40;3.80;;;26.40;1.00;;;;;;5031386;28;20242;-73
2023/08/19 01:42:33;;;;;;;7.07;3.73;;;26.30;1.00;;;;;;5030014;28;20268;-73
2023/08/19 01:44:59;;;;;;;6.20;3.80;;;26.30;1.00;;;;;;5030583;28;20787;-73
2023/08/19 01:47:24;;;;;;;9.90;3.70;;;26.30;1.00;;;;;;5033953;28;20255;-73
2023/08/19 01:49:50;;;;;;;5.27;3.67;;;26.20;1.00;;;;;;5032343;28;20208;-74
2023/08/19 01:52:17;;;;;;;10.73;3.80;;;26.20;1.00;;;;;;5033377;28;20604;-74
2023/08/19 01:54:43;;;;;;;5.57;3.63;;;26.10;1.00;;;;;;5032740;28;20646;-73
2023/08/19 01:57:09;;;;;;;6.00;3.63;;;26.10;1.00;;;;;;5032415;28;20559;-73
2023/08/19 01:59:35;;;;;;;6.33;3.73;;;26.10;1.00;;;;;;5033028;28;20204;-73
2023/08/19 02:02:00;;;;;;;7.30;3.73;;;26.10;1.00;;;;;;5032571;28;20193;-73
2023/08/19 02:04:26;;;;;;;6.30;3.70;;;26.10;1.00;;;;;;5032535;28;20520;-73
2023/08/19 02:06:53;;;;;;;5.40;3.70;;;26.10;1.00;;;;;;5033202;28;20209;-73
2023/08/19 02:09:18;;;;;;;6.07;3.67;;;26.10;1.00;;;;;;5032002;28;20656;-74
2023/08/19 02:11:44;;;;;;;6.43;3.60;;;26.20;1.00;;;;;;5033963;28;20219;-73
2023/08/19 02:14:09;;;;;;;6.70;3.50;;;26.10;1.00;;;;;;5028106;28;20189;-73
2023/08/19 02:16:35;;;;;;;8.17;3.70;;;26.10;1.00;;;;;;5030564;28;20272;-73
2023/08/19 02:19:01;;;;;;;5.10;3.53;;;26.10;1.00;;;;;;5029846;28;20235;-73
2023/08/19 02:21:26;;;;;;;6.87;3.60;;;26.10;1.00;;;;;;5029933;28;20174;-73
2023/08/19 02:23:53;;;;;;;7.37;3.77;;;26.00;1.00;;;;;;5030225;28;20200;-73
2023/08/19 02:26:19;;;;;;;9.23;3.63;;;26.10;1.00;;;;;;5025446;28;20208;-73
2023/08/19 02:28:45;;;;;;;4.93;3.83;;;26.00;1.00;;;;;;5029703;28;20207;-73
2023/08/19 02:31:10;;;;;;;6.63;3.70;;;26.00;1.00;;;;;;5029970;28;20211;-73
2023/08/19 02:33:36;;;;;;;8.10;4.30;;;26.00;1.00;;;;;;5028876;28;20271;-73
2023/08/19 02:36:04;;;;;;;8.33;3.63;;;26.10;1.00;;;;;;5029035;28;20181;-73
2023/08/19 02:38:29;;;;;;;6.50;3.80;;;25.90;1.00;;;;;;5029293;28;20471;-73
2023/08/19 02:40:56;;;;;;;9.60;3.97;;;26.10;1.00;;;;;;5028447;28;20538;-73
2023/08/19 02:43:21;;;;;;;5.10;3.53;;;25.90;1.00;;;;;;5027205;28;20265;-74
2023/08/19 02:45:47;;;;;;;6.67;3.87;;;26.30;1.00;;;;;;5029623;28;20318;-73
2023/08/19 02:48:14;;;;;;;6.70;3.43;;;25.10;1.00;;;;;;5029882;28;20224;-74
2023/08/19 02:50:39;;;;;;;7.20;3.67;;;25.90;1.00;;;;;;5029853;28;20474;-73
2023/08/19 02:53:05;;;;;;;7.27;3.73;;;26.10;1.00;;;;;;5027985;28;20181;-73
2023/08/19 02:55:30;;;;;;;5.93;4.10;;;25.90;1.00;;;;;;5027680;28;20186;-73
2023/08/19 02:57:56;;;;;;;8.90;4.00;;;25.90;1.00;;;;;;5028911;28;20698;-73
2023/08/19 03:00:21;;;;;;;8.77;3.90;;;25.90;1.00;;;;;;5044288;28;20193;-73
2023/08/19 03:02:47;;;;;;;7.40;3.87;;;25.90;1.00;;;;;;5028397;28;20174;-72
2023/08/19 03:05:13;;;;;;;10.13;4.30;;;25.80;1.00;;;;;;5027022;28;20193;-73
2023/08/19 03:07:39;;;;;;;7.70;3.90;;;25.90;1.00;;;;;;5029447;28;20296;-73
2023/08/19 03:10:06;;;;;;;8.67;4.17;;;25.90;1.00;;;;;;5020076;28;20531;-73
2023/08/19 03:12:32;;;;;;;7.40;4.10;;;25.90;1.00;;;;;;5028524;28;20192;-73
2023/08/19 03:14:58;;;;;;;7.60;4.07;;;25.90;1.00;;;;;;5027491;28;20440;-75
2023/08/19 03:17:23;;;;;;;6.33;4.23;;;25.90;1.00;;;;;;5027762;28;20211;-73
2023/08/19 03:19:49;;;;;;;4.63;3.50;;;25.90;1.00;;;;;;5029435;28;20181;-73
2023/08/19 03:22:14;;;;;;;5.90;4.30;;;25.90;1.00;;;;;;5028551;28;20220;-73
2023/08/19 03:24:40;;;;;;;8.70;4.30;;;25.90;1.00;;;;;;5029115;28;20185;-73
2023/08/19 03:27:05;;;;;;;5.90;4.27;;;25.90;1.00;;;;;;5027030;28;20524;-73
2023/08/19 03:29:31;;;;;;;8.10;4.57;;;25.90;1.00;;;;;;5029116;28;20201;-73
2023/08/19 03:31:59;;;;;;;5.10;3.87;;;25.90;1.00;;;;;;5027804;28;20259;-73
2023/08/19 03:34:25;;;;;;;6.03;3.77;;;25.90;1.00;;;;;;5028088;28;20207;-74
2023/08/19 03:36:50;;;;;;;6.50;4.27;;;25.90;1.00;;;;;;5027574;28;21163;-74
2023/08/19 03:39:16;;;;;;;7.50;4.00;;;26.00;1.00;;;;;;5027630;28;20216;-74
2023/08/19 03:41:41;;;;;;;5.90;4.13;;;25.90;1.00;;;;;;5028609;28;20541;-73
2023/08/19 03:44:07;;;;;;;5.17;4.13;;;25.80;1.00;;;;;;5027494;28;20225;-74
2023/08/19 03:46:33;;;;;;;8.53;4.53;;;25.90;1.00;;;;;;5027219;28;20180;-73
2023/08/19 03:48:58;;;;;;;6.00;3.97;;;25.90;1.00;;;;;;5027525;28;20189;-74
2023/08/19 03:51:24;;;;;;;9.30;4.40;;;26.00;1.00;;;;;;5026146;28;20540;-74
2023/08/19 03:53:49;;;;;;;6.10;3.70;;;25.90;1.00;;;;;;5026626;28;20196;-74
2023/08/19 03:56:15;;;;;;;5.47;3.90;;;27.40;1.00;;;;;;5028081;28;20177;-74
2023/08/19 03:58:40;;;;;;;5.53;4.23;;;25.90;1.00;;;;;;5026433;28;20221;-74
2023/08/19 04:01:07;;;;;;;5.63;4.00;;;24.80;1.00;;;;;;5027442;28;20185;-73
2023/08/19 04:03:33;;;;;;;7.17;4.00;;;25.90;1.00;;;;;;5025636;28;20383;-74
2023/08/19 04:05:58;;;;;;;8.60;4.60;;;25.70;1.00;;;;;;5028838;28;20518;-74
2023/08/19 04:08:24;;;;;;;6.97;4.23;;;25.70;1.00;;;;;;5026808;28;20347;-73
2023/08/19 04:10:50;;;;;;;6.37;4.30;;;25.70;1.00;;;;;;5020579;28;20219;-74
2023/08/19 04:13:17;;;;;;;11.23;4.10;;;25.80;1.00;;;;;;5027661;28;20203;-73
2023/08/19 04:15:42;;;;;;;5.67;4.10;;;25.90;1.00;;;;;;5027971;28;20188;-73
2023/08/19 04:18:08;;;;;;;8.80;4.53;;;25.70;1.00;;;;;;5024701;28;20720;-73
2023/08/19 04:20:38;;;;;;;7.57;4.07;;;25.70;1.00;;;;;;5028433;28;20276;-74
2023/08/19 04:23:04;;;;;;;8.10;3.70;;;25.70;1.00;;;;;;5027242;28;20592;-74
2023/08/19 04:25:30;;;;;;;6.63;4.00;;;25.70;1.00;;;;;;5023353;28;20439;-74
2023/08/19 04:27:55;;;;;;;6.37;4.20;;;25.70;1.00;;;;;;5024787;28;20463;-73
2023/08/19 04:30:21;;;;;;;9.13;3.73;;;25.60;1.00;;;;;;5025729;28;20189;-73
2023/08/19 04:32:46;;;;;;;8.90;4.37;;;25.60;1.00;;;;;;5027341;28;20189;-74
2023/08/19 04:35:12;;;;;;;6.73;4.30;;;25.60;1.00;;;;;;5028042;28;20255;-73
2023/08/19 04:37:38;;;;;;;5.33;4.10;;;25.60;1.00;;;;;;5025527;28;20208;-73
2023/08/19 04:40:09;;;;;;;6.93;4.17;;;25.80;1.00;;;;;;5027976;28;20187;-73
2023/08/19 04:42:35;;;;;;;6.90;4.27;;;25.60;1.00;;;;;;5028173;28;20173;-73
2023/08/19 04:45:01;;;;;;;7.07;4.20;;;25.70;1.00;;;;;;5026170;28;20502;-73
2023/08/19 04:47:27;;;;;;;7.47;4.33;;;25.80;1.00;;;;;;5025115;28;20213;-73
2023/08/19 04:49:52;;;;;;;6.00;4.00;;;25.60;1.00;;;;;;5028149;28;20191;-73
2023/08/19 04:52:18;;;;;;;6.40;4.00;;;25.60;1.00;;;;;;5026174;28;20187;-73
2023/08/19 04:54:43;;;;;;;6.20;4.33;;;25.60;1.00;;;;;;5024909;28;20212;-74
2023/08/19 04:57:09;;;;;;;9.40;4.27;;;25.60;1.00;;;;;;5022248;28;20614;-73
2023/08/19 04:59:34;;;;;;;7.97;4.23;;;25.60;1.00;;;;;;5024057;28;20536;-73
2023/08/19 05:02:01;;;;;;;7.30;4.60;;;25.60;1.00;;;;;;5025183;28;20638;-73
2023/08/19 05:04:26;;;;;;;6.17;4.40;;;25.60;1.00;;;;;;5026133;28;20663;-73
2023/08/19 05:06:52;;;;;;;6.87;4.13;;;25.70;1.00;;;;;;5025799;28;20497;-73
2023/08/19 05:09:17;;;;;;;9.73;4.10;;;25.70;1.00;;;;;;5028336;28;20200;-74
2023/08/19 05:11:43;;;;;;;6.57;4.07;;;25.70;1.00;;;;;;5026541;28;20185;-74
2023/08/19 05:14:08;;;;;;;4.87;3.90;;;25.80;1.00;;;;;;5026843;28;20181;-73
2023/08/19 05:16:34;;;;;;;8.10;4.73;;;25.70;1.00;;;;;;5026426;28;20189;-73
2023/08/19 05:19:16;;;;;;;6.27;4.37;;;25.70;1.00;;;;;;5025920;28;20691;-73
2023/08/19 05:21:41;;;;;;;8.73;4.73;;;25.70;1.00;;;;;;5026207;28;20189;-73
2023/08/19 05:24:07;;;;;;;6.37;4.70;;;25.80;1.00;;;;;;5026864;28;20458;-74
2023/08/19 05:26:33;;;;;;;6.50;4.07;;;25.70;1.00;;;;;;5026603;28;20185;-73
2023/08/19 05:28:59;;;;;;;9.97;4.70;;;25.70;1.00;;;;;;5026593;28;20826;-73
2023/08/19 05:31:25;;;;;;;8.90;4.30;;;25.70;1.00;;;;;;5026982;28;20181;-74
2023/08/19 05:33:50;;;;;;;8.10;4.43;;;25.70;1.00;;;;;;5027365;28;20189;-74
2023/08/19 05:36:16;;;;;;;7.83;4.20;;;25.80;1.00;;;;;;5025028;28;20184;-73
2023/08/19 05:38:41;;;;;;;7.40;4.17;;;25.70;1.00;;;;;;5022879;28;20592;-73
2023/08/19 05:41:07;;;;;;;7.00;4.67;;;25.80;1.00;;;;;;5023153;28;20711;-73
2023/08/19 05:43:32;;;;;;;10.23;4.30;;;25.80;1.00;;;;;;5026721;28;20193;-73
2023/08/19 05:45:58;;;;;;;7.80;4.90;;;26.00;1.00;;;;;;5026684;28;20228;-73
2023/08/19 05:48:24;;;;;;;5.73;4.30;;;26.00;1.00;;;;;;5025926;28;20263;-73
2023/08/19 05:50:49;;;;;;;6.93;4.40;;;26.00;1.00;;;;;;5029156;28;20803;-73
2023/08/19 05:53:15;;;;;;;5.10;4.33;;;26.00;1.00;;;;;;5028863;28;20196;-74
2023/08/19 05:55:40;;;;;;;5.50;4.40;;;26.10;1.00;;;;;;5024005;28;20184;-74
2023/08/19 05:58:06;;;;;;;6.80;4.20;;;26.20;1.00;;;;;;5028436;28;20211;-73
2023/08/19 06:00:31;;;;;;;6.00;4.23;;;26.20;1.00;;;;;;5029234;28;20191;-74
2023/08/19 06:02:57;;;;;;;7.10;4.43;;;26.30;1.00;;;;;;5030503;28;20690;-73
2023/08/19 06:05:22;;;;;;;6.93;4.17;;;26.30;1.00;;;;;;5030003;28;20216;-74
2023/08/19 06:07:48;;;;;;;7.43;5.00;;;26.30;1.00;;;;;;5030249;28;20224;-74
2023/08/19 06:10:13;;;;;;;6.67;4.40;;;26.40;1.00;;;;;;5029845;28;20268;-73
2023/08/19 06:12:39;;;;;;;10.10;4.70;;;26.50;1.00;;;;;;5028171;28;20250;-73
2023/08/19 06:15:05;;;;;;;7.23;4.60;;;26.40;1.00;;;;;;5030835;28;20193;-74
2023/08/19 06:17:31;;;;;;;10.77;4.33;;;26.50;1.00;;;;;;5029233;28;20216;-74
2023/08/19 06:19:57;;;;;;;6.67;4.50;;;26.60;1.00;;;;;;5030489;28;20184;-73
2023/08/19 06:22:22;;;;;;;6.00;4.37;;;26.70;1.00;;;;;;5030213;28;20181;-73
2023/08/19 06:24:48;;;;;;;7.13;4.40;;;26.80;1.00;;;;;;5029879;28;20192;-74
2023/08/19 06:27:13;;;;;;;7.67;4.60;;;27.00;1.00;;;;;;5029981;28;20201;-74
2023/08/19 06:29:40;;;;;;;6.63;4.87;;;27.10;1.00;;;;;;5028602;28;20185;-74
2023/08/19 06:32:06;;;;;;;5.83;4.20;;;27.10;1.00;;;;;;5026992;28;20185;-74
2023/08/19 06:34:31;;;;;;;6.20;4.30;;;27.20;1.00;;;;;;5025213;28;20185;-74
2023/08/19 06:37:00;;;;;;;6.80;4.33;;;27.20;1.00;;;;;;5030246;28;20213;-73
2023/08/19 06:39:26;;;;;;;5.67;4.40;;;27.30;1.00;;;;;;5029304;28;20231;-74
2023/08/19 06:42:00;;;;;;;9.10;4.37;;;27.30;1.00;;;;;;5022499;28;20571;-74
2023/08/19 06:44:28;;;;;;;8.33;4.47;;;27.30;1.00;;;;;;5028741;28;20177;-73
2023/08/19 06:46:55;;;;;;;8.47;4.60;;;27.40;1.00;;;;;;5028805;28;20193;-73
2023/08/19 06:49:21;;;;;;;6.37;4.37;;;27.50;1.00;;;;;;5027382;28;20185;-74
2023/08/19 06:51:47;;;;;;;6.67;4.63;;;27.70;1.00;;;;;;5028235;28;20200;-74
2023/08/19 06:54:13;;;;;;;7.90;4.50;;;27.80;1.00;;;;;;5026427;28;20209;-74
2023/08/19 06:56:47;;;;;;;6.57;4.47;;;27.90;1.00;;;;;;5031416;28;20789;-74
2023/08/19 06:59:23;;;;;;;7.60;4.37;;;28.20;1.00;;;;;;5030762;28;20181;-74
2023/08/19 07:01:57;;;;;;;6.43;4.10;;;28.20;1.00;;;;;;5029160;28;20785;-73
2023/08/19 07:04:23;;;;;;;5.40;4.10;;;28.20;1.00;;;;;;5030267;28;20211;-73
2023/08/19 07:06:50;;;;;;;12.33;4.40;;;28.30;1.00;;;;;;5029842;28;20236;-74
2023/08/19 07:09:20;;;;;;;11.40;5.03;;;28.20;1.00;;;;;;5037931;28;20207;-73
2023/08/19 07:11:46;;;;;;;5.83;4.60;;;28.30;1.00;;;;;;5029778;28;20211;-73
2023/08/19 07:14:12;;;;;;;8.07;4.30;;;28.20;1.00;;;;;;5030106;28;20299;-74
2023/08/19 07:16:38;;;;;;;10.60;4.60;;;28.40;1.00;;;;;;5029386;28;20197;-73
2023/08/19 07:19:09;;;;;;;10.53;4.50;;;28.40;1.00;;;;;;5030424;28;20191;-73
2023/08/19 07:21:35;;;;;;;7.70;4.70;;;28.50;1.00;;;;;;5027962;28;20181;-73
2023/08/19 07:24:02;;;;;;;7.07;4.53;;;28.50;1.00;;;;;;5028808;28;20177;-74
2023/08/19 07:26:28;;;;;;;9.93;4.53;;;28.80;1.00;;;;;;5029337;28;20169;-74
2023/08/19 07:28:54;;;;;;;8.93;4.70;;;28.80;1.00;;;;;;5030003;28;20714;-74
2023/08/19 07:31:23;;;;;;;9.20;4.47;;;28.90;1.00;;;;;;5029193;28;20182;-74
2023/08/19 07:33:50;;;;;;;7.03;4.57;;;29.10;1.00;;;;;;5021693;28;20298;-74
2023/08/19 07:36:15;;;;;;;11.45;4.68;;;29.30;1.00;;;;;;5028277;28;20655;-74
2023/08/19 07:38:41;;;;;;;10.27;4.93;;;29.30;1.00;;;;;;5027619;28;20228;-74
2023/08/19 07:41:07;;;;;;;7.80;4.60;;;29.10;1.00;;;;;;5027975;28;20196;-74
2023/08/19 07:43:32;;;;;;;8.00;4.45;;;29.20;1.00;;;;;;5029382;28;20188;-74
2023/08/19 07:45:58;;;;;;;8.00;4.77;;;29.30;1.00;;;;;;5033376;28;20197;-73
2023/08/19 07:48:24;;;;;;;7.07;4.60;;;29.20;1.00;;;;;;5029374;28;20277;-73
2023/08/19 07:50:50;;;;;;;6.03;4.70;;;29.10;1.00;;;;;;5027256;28;20189;-74
2023/08/19 07:53:16;;;;;;;5.90;4.38;;;29.40;1.00;;;;;;5029409;28;20233;-73
2023/08/19 07:55:41;;;;;;;11.00;5.03;;;30.10;1.00;;;;;;5029016;28;20988;-74
2023/08/19 07:58:07;;;;;;;8.60;4.68;;;30.80;1.00;;;;;;5029029;28;20607;-74
2023/08/19 08:00:32;;;;;;;6.32;4.25;;;31.70;1.00;;;;;;5028503;28;20180;-74
2023/08/19 08:02:59;;;;;;;6.60;4.22;;;32.50;1.00;;;;;;5029166;28;20201;-74
2023/08/19 08:05:24;;;;;;;7.97;4.30;;;32.90;1.00;;;;;;5027867;28;20181;-74
2023/08/19 08:07:50;;;;;;;10.30;4.33;;;33.40;1.00;;;;;;5026729;28;21020;-74
2023/08/19 08:10:15;;;;;;;5.32;3.80;;;34.40;1.00;;;;;;5026669;28;20202;-74
2023/08/19 08:12:41;;;;;;;8.60;4.35;;;34.50;1.00;;;;;;5025403;28;20204;-74
2023/08/19 08:15:08;;;;;;;7.43;4.70;;;34.70;1.00;;;;;;5027305;28;20211;-74
2023/08/19 08:17:34;;;;;;;5.55;4.50;;;34.60;1.00;;;;;;5026655;28;20217;-74
2023/08/19 08:19:59;;;;;;;7.57;4.38;;;34.90;1.00;;;;;;5027071;28;20315;-74
2023/08/19 08:22:25;;;;;;;7.57;4.18;;;35.40;1.00;;;;;;5026488;28;20555;-74
2023/08/19 08:24:51;;;;;;;7.70;4.85;;;35.70;1.00;;;;;;5026775;28;20331;-74
2023/08/19 08:27:16;;;;;;;6.38;4.32;;;36.30;1.00;;;;;;5027574;28;20225;-75
2023/08/19 08:29:42;;;;;;;6.88;4.03;;;36.60;1.00;;;;;;5024400;28;20189;-74
2023/08/19 08:32:09;;;;;;;7.47;4.20;;;36.40;1.00;;;;;;5026673;28;20181;-74
2023/08/19 08:34:34;;;;;;;7.03;4.68;;;36.70;1.00;;;;;;5027596;28;20211;-74
2023/08/19 08:37:00;;;;;;;6.15;4.40;;;37.30;1.00;;;;;;5026011;28;20485;-75
2023/08/19 08:39:26;;;;;;;6.97;4.10;;;37.30;1.00;;;;;;5027991;28;20184;-75
2023/08/19 08:41:52;;;;;;;9.13;4.72;;;37.70;1.00;;;;;;5026696;28;20251;-75
2023/08/19 08:44:18;;;;;;;7.65;5.03;;;38.30;1.00;;;;;;5027498;28;20192;-74
2023/08/19 08:46:46;;;;;;;7.05;4.22;;;38.60;1.00;;;;;;5026230;28;20806;-75
2023/08/19 08:49:12;;;;;;;5.95;4.10;;;39.10;1.00;;;;;;5020203;28;20635;-75
2023/08/19 08:51:39;;;;;;;5.10;4.35;;;39.00;1.00;;;;;;5025960;28;20204;-75
2023/08/19 08:54:05;;;;;;;9.82;4.82;;;39.30;1.00;;;;;;5026012;28;20181;-75
2023/08/19 08:56:31;;;;;;;8.30;4.70;;;39.60;1.00;;;;;;5025742;28;20182;-75
2023/08/19 08:58:58;;;;;;;8.52;4.88;;;39.70;1.00;;;;;;5026719;28;20201;-75
2023/08/19 09:01:26;;;;;;;5.70;4.55;;;40.60;1.00;;;;;;5027032;28;21018;-75
2023/08/19 09:03:57;;;;;;;6.82;4.82;;;40.80;1.00;;;;;;5027081;28;20221;-75
2023/08/19 09:06:23;;;;;;;7.05;4.30;;;41.80;1.00;;;;;;5026669;28;20674;-76
2023/08/19 09:09:02;;;;;;;5.15;4.05;;;41.70;1.00;;;;;;5026308;28;20189;-75
2023/08/19 09:11:29;;;;;;;6.60;4.13;;;41.00;1.00;;;;;;5026349;28;20239;-75
2023/08/19 09:14:18;;;;;;;7.35;4.85;;;40.40;1.00;;;;;;5025188;28;20655;-75
2023/08/19 09:16:43;;;;;;;12.50;4.55;;;40.00;1.00;;;;;;5023832;28;20825;-75
2023/08/19 09:19:09;;;;;;;6.65;5.05;;;40.00;1.00;;;;;;5026724;28;20181;-75
2023/08/19 09:21:35;;;;;;;9.50;4.60;;;40.30;1.00;;;;;;5024854;28;20675;-74
2023/08/19 09:24:00;;;;;;;9.93;4.80;;;40.40;1.00;;;;;;5028667;28;20552;-75
2023/08/19 09:26:26;;;;;;;8.45;4.95;;;40.90;1.00;;;;;;5029875;28;20181;-74
2023/08/19 09:28:58;;;;;;;7.22;4.80;;;40.90;1.00;;;;;;5030604;28;20296;-75
2023/08/19 09:31:24;;;;;;;7.30;4.60;;;40.90;1.00;;;;;;5031295;28;20247;-75
2023/08/19 09:33:52;;;;;;;9.40;4.60;;;41.00;1.00;;;;;;5030634;28;20189;-75
2023/08/19 09:36:21;;;;;;;13.45;5.40;;;41.20;1.00;;;;;;5030156;28;20656;-75
2023/08/19 09:38:55;;;;;;;13.07;4.95;;;41.00;1.00;;;;;;5027705;28;20212;-75
2023/08/19 09:41:28;;;;;;;5.88;4.57;;;40.70;1.00;;;;;;5029085;28;20181;-75
2023/08/19 09:43:55;;;;;;;10.55;4.72;;;40.30;1.00;;;;;;5029171;28;20188;-74
2023/08/19 09:46:21;;;;;;;8.57;4.90;;;40.10;1.00;;;;;;5024898;28;20193;-75
2023/08/19 09:48:57;;;;;;;7.93;4.78;;;40.10;1.00;;;;;;5028511;28;20208;-75
2023/08/19 09:51:23;;;;;;;6.47;4.55;;;40.60;1.00;;;;;;5028261;28;20177;-75
2023/08/19 09:53:49;;;;;;;8.93;5.05;;;41.20;1.00;;;;;;5026270;28;20265;-75
2023/08/19 09:56:24;;;;;;;8.30;4.72;;;40.70;1.00;;;;;;5028330;28;20185;-76
2023/08/19 09:58:51;;;;;;;8.13;4.35;;;40.10;1.00;;;;;;5029420;28;20287;-75
2023/08/19 10:01:17;;;;;;;9.18;5.03;;;39.90;1.00;;;;;;5029627;28;20218;-76
2023/08/19 10:03:43;;;;;;;9.77;5.38;;;39.40;1.00;;;;;;5028759;28;20276;-75
2023/08/19 10:06:10;;;;;;;9.80;5.30;;;38.50;1.00;;;;;;5030061;28;20178;-74
2023/08/19 10:08:42;;;;;;;7.18;5.50;;;38.00;1.00;;;;;;5028777;28;20212;-75
2023/08/19 10:11:08;;;;;;;9.23;5.00;;;37.70;1.00;;;;;;5022438;28;20552;-75
2023/08/19 10:13:35;;;;;;;8.45;4.55;;;38.00;1.00;;;;;;5029667;28;20189;-75
2023/08/19 10:16:04;;;;;;;7.28;5.25;;;38.00;1.00;;;;;;5026060;28;20186;-75
2023/08/19 10:18:35;;;;;;;9.55;5.68;;;38.00;1.00;;;;;;5028528;28;20216;-74
2023/08/19 10:21:05;;;;;;;7.70;5.03;;;38.00;1.00;;;;;;5030109;28;20173;-74
2023/08/19 10:23:31;;;;;;;10.65;5.40;;;37.90;1.00;;;;;;5030341;28;20177;-74
2023/08/19 10:25:58;;;;;;;9.82;5.65;;;38.20;1.00;;;;;;5025670;28;20204;-75
2023/08/19 10:28:27;;;;;;;9.50;5.22;;;38.20;1.00;;;;;;5017706;28;20205;-74
2023/08/19 10:31:12;;;;;;;8.07;5.57;;;38.30;1.00;;;;;;5028720;28;20173;-74
2023/08/19 10:33:43;;;;;;;8.35;5.03;;;38.80;1.00;;;;;;5029299;28;20169;-75
2023/08/19 10:36:11;;;;;;;7.65;5.43;;;39.00;1.00;;;;;;5026264;28;20649;-74
2023/08/19 10:39:00;;;;;;;7.75;4.90;;;38.50;1.00;;;;;;5027912;28;20311;-75
2023/08/19 10:41:28;;;;;;;7.88;5.28;;;38.40;1.00;;;;;;5022506;28;20243;-74
2023/08/19 10:43:59;;;;;;;10.88;5.82;;;38.30;1.00;;;;;;5027092;28;20178;-75
2023/08/19 10:46:47;;;;;;;12.10;6.18;;;37.70;1.00;;;;;;5028900;28;20184;-74
2023/08/19 10:49:18;;;;;;;9.90;6.45;;;37.60;1.00;;;;;;5026248;28;20186;-74
2023/08/19 10:52:05;;;;;;;11.40;6.22;;;37.40;1.00;;;;;;5027779;28;20189;-74
2023/08/19 10:54:38;;;;;;;12.30;6.25;;;37.60;1.00;;;;;;5027529;28;20185;-74
2023/08/19 10:57:24;;;;;;;8.35;6.15;;;38.10;1.00;;;;;;5025837;28;20211;-74
2023/08/19 11:00:00;;;;;;;10.98;6.53;;;38.10;1.00;;;;;;5028228;28;20177;-74
2023/08/19 11:02:27;;;;;;;12.18;6.68;;;38.40;1.00;;;;;;5022297;28;20191;-74
2023/08/19 11:04:54;;;;;;;13.45;6.43;;;38.20;1.00;;;;;;5030120;28;20227;-74
2023/08/19 11:07:20;;;;;;;9.27;6.80;;;37.80;1.00;;;;;;5028874;28;20255;-74
2023/08/19 11:09:48;;;;;;;10.40;6.43;;;37.20;1.00;;;;;;5024696;28;20205;-74
2023/08/19 11:12:19;;;;;;;6.72;6.03;;;37.20;1.00;;;;;;5021204;28;20232;-74
2023/08/19 11:14:50;;;;;;;11.07;5.93;;;37.10;1.00;;;;;;5028348;28;20226;-74
2023/08/19 11:17:16;;;;;;;11.25;6.28;;;37.00;1.00;;;;;;5025346;28;20209;-74
2023/08/19 11:19:42;;;;;;;14.80;6.35;;;37.00;1.00;;;;;;5028394;28;20184;-73
2023/08/19 11:22:15;;;;;;;11.80;6.07;;;37.30;1.00;;;;;;5027699;28;20181;-74
2023/08/19 11:24:40;;;;;;;14.43;6.15;;;37.40;1.00;;;;;;5025934;28;20226;-74
2023/08/19 11:27:07;;;;;;;10.02;6.00;;;38.20;1.00;;;;;;5041437;28;20662;-74
2023/08/19 11:29:32;;;;;;;10.63;5.63;;;39.00;1.00;;;;;;5027210;28;20177;-74
2023/08/19 11:32:00;;;;;;;9.05;6.25;;;39.10;1.00;;;;;;5027538;28;20184;-74
2023/08/19 11:34:28;;;;;;;8.75;5.38;;;39.50;1.00;;;;;;5026723;28;20204;-73
2023/08/19 11:36:54;;;;;;;8.23;5.40;;;40.40;1.00;;;;;;5026420;28;20239;-74
2023/08/19 11:39:19;;;;;;;11.68;6.07;;;40.50;1.00;;;;;;5028860;28;20205;-74
2023/08/19 11:41:47;;;;;;;9.07;6.10;;;40.30;1.00;;;;;;5027186;28;20189;-74
2023/08/19 11:44:13;;;;;;;13.05;5.47;;;40.80;1.00;;;;;;5027057;28;20181;-74
2023/08/19 11:46:38;;;;;;;7.90;5.55;;;40.40;1.00;;;;;;5024900;28;20226;-74
2023/08/19 11:49:13;;;;;;;11.85;5.80;;;40.00;1.00;;;;;;5022286;28;20186;-74
2023/08/19 11:51:40;;;;;;;9.27;5.40;;;39.80;1.00;;;;;;5026714;28;20200;-73
2023/08/19 11:54:10;;;;;;;10.02;5.38;;;39.00;1.00;;;;;;5028212;28;20305;-73
2023/08/19 11:56:53;;;;;;;7.47;5.32;;;37.70;1.00;;;;;;5026497;28;20280;-74
2023/08/19 11:59:29;;;;;;;6.68;5.38;;;37.70;1.00;;;;;;5023568;28;20275;-74
2023/08/19 12:01:55;;;;;;;11.02;5.70;;;37.30;1.00;;;;;;5025812;28;20220;-73
2023/08/19 12:04:22;;;;;;;9.77;5.97;;;37.20;1.00;;;;;;5027492;28;20231;-73
2023/08/19 12:06:47;;;;;;;13.57;5.78;;;37.30;1.00;;;;;;5026528;28;20213;-74
2023/08/19 12:09:17;;;;;;;15.38;6.00;;;37.10;1.00;;;;;;5024260;28;20556;-74
2023/08/19 12:11:47;;;;;;;11.23;6.03;;;36.70;1.00;;;;;;5028312;28;20212;-73
2023/08/19 12:14:13;;;;;;;11.27;5.93;;;36.50;1.00;;;;;;5021814;28;20181;-74
2023/08/19 12:16:38;;;;;;;10.40;5.97;;;36.20;1.00;;;;;;5026028;28;20857;-73
2023/08/19 12:19:04;;;;;;;10.15;6.13;;;36.30;1.00;;;;;;5024477;28;20565;-74
2023/08/19 12:21:30;;;;;;;11.95;6.43;;;36.40;1.00;;;;;;5025357;28;20555;-73
2023/08/19 12:23:55;;;;;;;9.88;6.10;;;36.30;1.00;;;;;;5023175;28;20200;-73
2023/08/19 12:26:21;;;;;;;10.02;7.00;;;;;;;;;;5026777;28;20209;-72
2023/08/19 12:28:47;;;;;;;10.77;7.10;;;36.50;1.00;;;;;;5025683;28;20243;-73
2023/08/19 12:31:13;;;;;;;8.55;6.53;;;36.40;1.00;;;;;;5025449;28;20303;-74
2023/08/19 12:33:42;;;;;;;15.35;6.75;;;36.10;1.00;;;;;;5025807;28;20207;-73
2023/08/19 12:36:08;;;;;;;9.43;6.30;;;35.90;1.00;;;;;;5024986;28;20216;-73
2023/08/19 12:38:33;;;;;;;9.32;6.20;;;35.90;1.00;;;;;;5023674;28;20218;-73
2023/08/19 12:40:59;;;;;;;8.98;6.65;;;35.60;1.00;;;;;;5020984;28;20231;-74
2023/08/19 12:43:24;;;;;;;9.35;6.93;;;35.30;1.00;;;;;;5024795;28;20536;-73
2023/08/19 12:45:50;;;;;;;12.88;6.97;;;34.90;1.00;;;;;;5024766;28;20206;-74
2023/08/19 12:48:15;;;;;;;11.85;6.88;;;34.80;1.00;;;;;;5026936;28;20197;-73
2023/08/19 12:50:41;;;;;;;10.25;6.97;;;34.80;1.00;;;;;;5025909;28;20203;-73
2023/08/19 12:53:07;;;;;;;10.07;7.40;;;34.70;1.00;;;;;;5024797;28;20173;-72
2023/08/19 12:55:34;;;;;;;11.30;7.40;;;34.60;1.00;;;;;;5026347;28;20173;-73